Time;durP1;ratioP1;P1;durP2;ratioP2;P2;SDS_P1;SDS_P2;PMS_P1;PMS_P2;Temp;Humidity;BMP_temperature;BMP_pressure;BME280_temperature;BME280_humidity;BME280_pressure;Samples;Min_cycle;Max_cycle;Signal;HPM_P1;HPM_P2
2022/03/03 00:01:42;;;;;;;;;32.75;29.00;;;;;20.38;35.85;101374.41;5059363;28;51192;-48
2022/03/03 00:04:08;;;;;;;;;29.00;27.75;;;;;20.38;35.61;101368.91;5065014;28;51161;-47
2022/03/03 00:06:34;;;;;;;;;20.50;19.00;;;;;20.35;35.70;101372.06;5057913;28;51181;-48
2022/03/03 00:09:00;;;;;;;;;32.50;28.00;;;;;20.36;35.59;101376.50;5058816;28;51353;-44
2022/03/03 00:11:25;;;;;;;;;29.75;29.25;;;;;20.35;35.84;101369.31;5059602;27;51121;-44
2022/03/03 00:13:51;;;;;;;;;29.00;26.50;;;;;20.35;35.67;101369.31;5056287;28;51019;-43
2022/03/03 00:16:16;;;;;;;;;32.50;31.50;;;;;20.33;35.70;101361.28;5059240;28;51278;-49
2022/03/03 00:18:41;;;;;;;;;35.50;32.25;;;;;20.32;35.54;101364.22;5059686;28;52455;-48
2022/03/03 00:21:07;;;;;;;;;30.50;28.25;;;;;20.31;35.58;101363.38;5062330;28;51176;-46
2022/03/03 00:23:32;;;;;;;;;30.25;26.50;;;;;20.31;35.91;101360.63;5054926;28;51706;-49
2022/03/03 00:25:58;;;;;;;;;37.25;30.75;;;;;20.31;35.73;101357.00;5062148;28;51103;-47
2022/03/03 00:28:24;;;;;;;;;33.75;27.50;;;;;20.29;35.38;101359.13;5057200;28;51131;-51
2022/03/03 00:30:50;;;;;;;;;32.50;29.25;;;;;20.28;35.51;101363.78;5070888;27;51377;-49
2022/03/03 00:33:15;;;;;;;;;32.50;29.25;;;;;20.27;35.57;101361.25;5059061;28;51206;-47
2022/03/03 00:35:41;;;;;;;;;35.25;32.00;;;;;20.25;35.47;101366.13;5060651;28;51093;-49
2022/03/03 00:38:06;;;;;;;;;34.00;31.75;;;;;20.25;35.48;101368.88;5058077;28;51072;-52
2022/03/03 00:40:31;;;;;;;;;32.50;31.50;;;;;20.22;35.46;101370.16;5055954;28;51749;-48
2022/03/03 00:42:57;;;;;;;;;30.75;29.50;;;;;20.22;35.69;101366.50;5060362;28;51138;-50
2022/03/03 00:45:22;;;;;;;;;37.25;32.25;;;;;20.21;35.22;101364.81;5065692;28;51166;-53
2022/03/03 00:47:49;;;;;;;;;36.00;31.25;;;;;20.18;35.61;101369.69;5060245;28;51291;-48
2022/03/03 00:50:14;;;;;;;;;31.50;28.75;;;;;20.16;35.61;101374.56;5055858;28;51211;-53
2022/03/03 00:52:40;;;;;;;;;33.25;28.25;;;;;20.15;35.33;101372.88;5061192;28;51216;-52
2022/03/03 00:55:06;;;;;;;;;33.75;28.25;;;;;20.15;35.29;101378.38;5058259;28;51288;-52
2022/03/03 00:57:31;;;;;;;;;32.50;27.25;;;;;20.12;35.50;101373.28;5057598;28;51029;-51
2022/03/03 00:59:57;;;;;;;;;31.25;25.75;;;;;20.11;35.63;101366.09;5061176;27;51118;-52
2022/03/03 01:02:22;;;;;;;;;36.50;30.25;;;;;20.10;35.42;101375.38;5059608;28;51133;-52
2022/03/03 01:04:47;;;;;;;;;32.75;29.25;;;;;20.10;35.48;101375.38;5063910;28;51087;-49
2022/03/03 01:07:13;;;;;;;;;31.75;31.00;;;;;20.09;35.37;101379.19;5057794;28;51327;-50
2022/03/03 01:09:38;;;;;;;;;35.50;31.00;;;;;20.09;35.52;101375.59;5061640;28;51113;-47
2022/03/03 01:12:04;;;;;;;;;35.25;29.50;;;;;20.08;35.71;101371.16;5055852;28;51983;-49
2022/03/03 01:14:29;;;;;;;;;28.75;27.50;;;;;20.06;35.75;101371.34;5071016;28;51117;-50
2022/03/03 01:16:54;;;;;;;;;28.50;25.25;;;;;20.06;35.50;101374.09;5060699;28;51139;-49
2022/03/03 01:19:20;;;;;;;;;38.50;32.25;;;;;20.04;35.25;101373.47;5064830;28;50985;-51
2022/03/03 01:21:46;;;;;;;;;39.00;35.00;;;;;20.02;35.38;101364.59;5059497;28;51112;-52
2022/03/03 01:24:11;;;;;;;;;32.50;30.25;;;;;20.01;35.50;101371.16;5062267;28;51561;-51
2022/03/03 01:26:37;;;;;;;;;38.50;33.25;;;;;20.01;35.70;101367.50;5070185;28;51430;-50
2022/03/03 01:29:02;;;;;;;;;33.50;32.25;;;;;20.00;35.59;101363.06;5063937;27;51308;-51
2022/03/03 01:31:28;;;;;;;;;31.25;28.25;;;;;19.99;35.50;101355.88;5058156;27;51821;-50
2022/03/03 01:33:53;;;;;;;;;33.50;29.75;;;;;19.98;35.64;101355.03;5060683;28;51109;-48
2022/03/03 01:36:19;;;;;;;;;38.25;31.50;;;;;19.96;35.73;101354.41;5063856;28;51134;-48
2022/03/03 01:38:44;;;;;;;;;40.00;30.50;;;;;19.95;35.56;101352.72;5072775;27;52228;-50
2022/03/03 01:41:10;;;;;;;;;37.50;33.00;;;;;19.95;35.79;101352.72;5061428;28;51529;-53
2022/03/03 01:43:37;;;;;;;;;38.00;30.25;;;;;19.93;35.55;101342.97;5061688;28;51179;-47
2022/03/03 01:46:02;;;;;;;;;39.00;30.75;;;;;19.94;35.77;101359.25;5065453;28;51176;-50
2022/03/03 01:48:28;;;;;;;;;38.50;33.00;;;;;19.92;35.77;101352.28;5058093;27;51398;-49
2022/03/03 01:50:53;;;;;;;;;33.00;29.50;;;;;19.91;35.53;101356.94;5066872;28;51121;-50
2022/03/03 01:53:19;;;;;;;;;37.00;32.75;;;;;19.90;35.45;101352.47;5057898;28;51135;-48
2022/03/03 01:55:45;;;;;;;;;36.00;29.25;;;;;19.89;35.63;101351.63;5065174;28;51046;-47
2022/03/03 01:58:11;;;;;;;;;34.00;31.50;;;;;19.87;35.85;101342.72;5063932;27;51368;-47
2022/03/03 02:00:36;;;;;;;;;30.75;29.75;;;;;19.87;35.75;101339.97;5065377;28;51267;-50
2022/03/03 02:03:01;;;;;;;;;29.75;28.75;;;;;19.87;35.92;101344.63;5059136;28;50987;-49
2022/03/03 02:05:28;;;;;;;;;34.00;30.25;;;;;19.87;35.73;101339.13;5063138;28;51262;-50
2022/03/03 02:07:53;;;;;;;;;31.75;29.00;;;;;19.86;35.48;101334.69;5063407;28;51542;-48
2022/03/03 02:10:19;;;;;;;;;40.25;35.25;;;;;19.84;35.53;101323.91;5060749;27;51949;-49
2022/03/03 02:12:44;;;;;;;;;32.75;27.25;;;;;19.84;35.51;101339.56;5058997;28;51099;-51
2022/03/03 02:15:17;;;;;;;;;34.00;32.75;;;;;19.84;35.55;101339.56;5060556;28;51143;-50
2022/03/03 02:17:43;;;;;;;;;31.25;28.00;;;;;19.83;35.43;101341.47;5059787;28;51407;-52
2022/03/03 02:20:19;;;;;;;;;34.75;31.75;;;;;19.81;35.61;101339.97;5060695;28;51992;-53
2022/03/03 02:22:44;;;;;;;;;29.50;28.00;;;;;19.79;35.69;101337.41;5062257;28;51567;-47
2022/03/03 02:25:10;;;;;;;;;37.50;31.50;;;;;19.80;35.76;101335.50;5059220;27;51215;-51
2022/03/03 02:27:36;;;;;;;;;33.75;28.75;;;;;19.79;35.38;101329.16;5057453;28;51384;-50
2022/03/03 02:30:01;;;;;;;;;32.75;31.50;;;;;19.79;35.49;101333.81;5066035;27;51267;-48
2022/03/03 02:32:26;;;;;;;;;38.00;33.50;;;;;19.78;35.85;101332.13;5059499;28;51128;-50
2022/03/03 02:34:52;;;;;;;;;36.75;31.75;;;;;19.77;35.61;101331.28;5071094;28;51371;-51
2022/03/03 02:37:17;;;;;;;;;34.25;31.75;;;;;19.77;35.55;101334.03;5059416;28;50982;-46
2022/03/03 02:39:43;;;;;;;;;35.00;33.25;;;;;19.76;35.59;101334.22;5058757;28;51983;-49
2022/03/03 02:42:09;;;;;;;;;30.75;27.75;;;;;19.76;35.72;101334.22;5062370;28;51223;-50
2022/03/03 02:44:34;;;;;;;;;33.75;29.75;;;;;19.75;35.69;101327.03;5061110;28;51170;-50
2022/03/03 02:47:00;;;;;;;;;38.00;30.75;;;;;19.75;35.57;101316.06;5059497;28;51062;-51
2022/03/03 02:49:26;;;;;;;;;38.00;32.00;;;;;19.74;35.61;101311.59;5064200;28;51804;-50
2022/03/03 02:51:51;;;;;;;;;36.50;31.75;;;;;19.74;35.83;101317.09;5061387;28;51057;-50
2022/03/03 02:54:16;;;;;;;;;39.75;30.25;;;;;19.72;35.95;101314.56;5060055;28;51157;-47
2022/03/03 02:59:26;;;;;;;;;29.75;27.25;;;;;19.72;35.83;101313.72;5057516;28;51264;-51
2022/03/03 03:01:51;;;;;;;;;32.25;28.25;;;;;19.70;35.89;101305.69;5064039;28;51448;-51
2022/03/03 03:04:17;;;;;;;;;36.75;30.25;;;;;19.70;35.88;101308.44;5062025;27;51446;-47
2022/03/03 03:06:42;;;;;;;;;35.75;32.50;;;;;19.69;35.84;101305.88;5057791;28;51444;-51
2022/03/03 03:09:07;;;;;;;;;31.00;29.50;;;;;19.69;35.63;101303.97;5062979;27;51859;-50
2022/03/03 03:11:33;;;;;;;;;33.25;32.00;;;;;19.69;35.68;101303.97;5058243;28;51175;-48
2022/03/03 03:13:58;;;;;;;;;32.00;29.75;;;;;19.68;35.84;101294.03;5058210;28;51225;-50
2022/03/03 03:16:23;;;;;;;;;29.00;27.25;;;;;19.68;35.80;101290.44;5058531;28;51097;-48
2022/03/03 03:18:49;;;;;;;;;31.00;30.75;;;;;19.68;35.47;101290.44;5072664;28;51911;-51
2022/03/03 03:21:14;;;;;;;;;34.75;31.25;;;;;19.66;35.85;101285.16;5073873;27;51262;-51
2022/03/03 03:23:39;;;;;;;;;36.75;30.50;;;;;19.65;35.90;101277.97;5066997;28;51167;-47
2022/03/03 03:26:05;;;;;;;;;34.25;31.75;;;;;19.65;35.79;101280.69;5071735;27;51131;-50
2022/03/03 03:28:30;;;;;;;;;36.00;31.00;;;;;19.65;35.97;101280.69;5074706;27;51705;-46
2022/03/03 03:30:55;;;;;;;;;39.25;30.50;;;;;19.64;35.74;101278.16;5065836;27;51026;-48
2022/03/03 03:33:21;;;;;;;;;37.50;32.50;;;;;19.65;36.01;101274.38;5075628;27;51010;-49
2022/03/03 03:35:46;;;;;;;;;33.75;33.00;;;;;19.63;35.97;101277.31;5065879;28;50952;-48
2022/03/03 03:38:12;;;;;;;;;28.75;27.50;;;;;19.63;35.85;101270.97;5055357;28;51137;-49
2022/03/03 03:40:37;;;;;;;;;36.50;28.50;;;;;19.62;35.66;101269.28;5056739;28;51221;-51
2022/03/03 03:43:03;;;;;;;;;34.25;29.75;;;;;19.61;35.71;101262.94;5055551;28;51106;-51
2022/03/03 03:45:28;;;;;;;;;33.50;30.00;;;;;19.62;35.63;101266.53;5066217;28;51296;-51
2022/03/03 03:47:54;;;;;;;;;37.25;33.75;;;;;19.61;35.84;101265.69;5057583;28;50958;-48
2022/03/03 03:50:19;;;;;;;;;32.00;31.00;;;;;19.59;35.83;101265.91;5073703;27;51374;-49
2022/03/03 03:52:44;;;;;;;;;31.00;31.00;;;;;19.60;35.89;101258.50;5075395;27;51052;-50
2022/03/03 03:55:12;;;;;;;;;35.25;32.00;;;;;19.59;35.85;101263.16;5063340;27;50966;-52
2022/03/03 03:57:38;;;;;;;;;32.75;29.75;;;;;19.58;35.84;101255.94;5066940;28;51314;-52
2022/03/03 04:00:08;;;;;;;;;34.75;32.50;;;;;19.58;35.71;101255.09;5069561;27;51507;-49
2022/03/03 04:02:33;;;;;;;;;37.00;31.00;;;;;19.58;35.97;101252.34;5057843;28;51229;-51
2022/03/03 04:04:58;;;;;;;;;36.50;31.75;;;;;19.57;35.94;101253.41;5070846;28;51169;-50
2022/03/03 04:07:24;;;;;;;;;31.50;31.00;;;;;19.57;35.96;101253.41;5055124;28;51803;-53
2022/03/03 04:09:49;;;;;;;;;32.50;28.50;;;;;19.56;35.91;101255.31;5056912;28;51151;-50
2022/03/03 04:12:14;;;;;;;;;32.75;29.25;;;;;19.55;35.87;101250.88;5056033;28;51155;-51
2022/03/03 04:14:40;;;;;;;;;30.25;27.75;;;;;19.55;35.78;101245.38;5071349;28;51172;-50
2022/03/03 04:17:07;;;;;;;;;35.50;30.25;;;;;19.55;35.91;101239.88;5074676;27;51027;-48
2022/03/03 04:19:32;;;;;;;;;32.75;29.00;;;;;19.54;35.98;101240.91;5070676;27;51140;-50
2022/03/03 04:21:58;;;;;;;;;34.75;29.75;;;;;19.54;35.94;101238.16;5057855;28;51057;-50
2022/03/03 04:24:23;;;;;;;;;28.75;28.00;;;;;19.54;35.97;101240.91;5073256;27;51107;-51
2022/03/03 04:26:49;;;;;;;;;33.75;28.75;;;;;19.53;36.00;101228.22;5057433;28;51721;-52
2022/03/03 04:29:14;;;;;;;;;35.00;29.50;;;;;19.52;35.93;101229.28;5067953;27;51075;-52
2022/03/03 04:31:40;;;;;;;;;32.25;29.75;;;;;19.52;35.95;101226.53;5068385;28;51087;-51
2022/03/03 04:34:05;;;;;;;;;36.50;31.25;;;;;19.52;35.96;101225.69;5072279;28;51316;-47
2022/03/03 04:36:30;;;;;;;;;30.25;29.00;;;;;19.51;36.05;101216.59;5071724;28;51861;-48
2022/03/03 04:38:56;;;;;;;;;32.50;27.50;;;;;19.51;36.12;101213.84;5074450;27;51176;-47
2022/03/03 04:41:21;;;;;;;;;28.75;25.75;;;;;19.50;36.02;101217.66;5073078;27;51429;-50
2022/03/03 04:43:46;;;;;;;;;33.50;32.00;;;;;19.50;36.25;101214.06;5077574;27;51169;-48
2022/03/03 04:46:12;;;;;;;;;28.25;26.50;;;;;19.51;36.13;101211.09;5065703;28;52002;-52
2022/03/03 04:48:37;;;;;;;;;29.50;27.75;;;;;19.51;36.26;101218.50;5059653;28;51132;-53
2022/03/03 04:51:03;;;;;;;;;32.50;30.50;;;;;19.51;36.30;101213.84;5065621;28;51161;-49
2022/03/03 04:53:29;;;;;;;;;27.75;26.00;;;;;19.52;36.42;101218.28;5068673;28;51004;-51
2022/03/03 04:55:55;;;;;;;;;32.25;30.25;;;;;19.53;36.05;101210.88;5077344;28;51166;-51
2022/03/03 04:58:21;;;;;;;;;29.00;26.00;;;;;19.52;36.05;101193.56;5075146;28;51001;-52
2022/03/03 05:00:47;;;;;;;;;34.00;30.50;;;;;19.51;35.97;101197.34;5076276;27;51152;-53
2022/03/03 05:03:13;;;;;;;;;33.25;31.75;;;;;19.49;36.30;101193.97;5058194;28;51230;-51
2022/03/03 05:05:38;;;;;;;;;34.50;31.00;;;;;19.49;36.35;101193.97;5064454;28;51088;-52
2022/03/03 05:08:04;;;;;;;;;29.50;29.50;;;;;19.48;36.31;101205.16;5059343;28;51013;-52
2022/03/03 05:10:29;;;;;;;;;32.25;28.00;;;;;19.48;36.32;101206.00;5063668;28;51193;-51
2022/03/03 05:12:55;;;;;;;;;34.75;29.50;;;;;19.48;36.12;101202.41;5058191;28;51387;-51
2022/03/03 05:15:20;;;;;;;;;28.25;25.25;;;;;19.47;36.32;101200.72;5062171;28;51959;-46
2022/03/03 05:17:45;;;;;;;;;31.25;27.75;;;;;19.45;36.21;101194.56;5067788;28;51153;-47
2022/03/03 05:20:12;;;;;;;;;30.25;29.25;;;;;19.46;36.27;101202.59;5072782;27;51222;-48
2022/03/03 05:22:37;;;;;;;;;33.75;31.75;;;;;19.45;36.32;101200.91;5077647;27;51094;-52
2022/03/03 05:25:03;;;;;;;;;30.00;27.50;;;;;19.45;36.31;101200.91;5070659;27;51714;-50
2022/03/03 05:27:28;;;;;;;;;29.75;24.00;;;;;19.45;36.12;101195.41;5067567;28;51143;-53
2022/03/03 05:29:54;;;;;;;;;31.25;28.00;;;;;19.46;36.12;101202.59;5074311;27;51168;-49
2022/03/03 05:32:19;;;;;;;;;29.75;26.25;;;;;19.45;36.20;101200.06;5060316;28;51145;-49
2022/03/03 05:34:45;;;;;;;;;34.25;28.25;;;;;19.45;36.21;101192.69;5065612;28;50975;-47
2022/03/03 05:37:10;;;;;;;;;26.50;26.25;;;;;19.44;36.17;101192.88;5064650;27;51096;-47
2022/03/03 05:39:37;;;;;;;;;29.75;27.25;;;;;19.44;36.43;101193.72;5057806;28;51269;-49
2022/03/03 05:42:03;;;;;;;;;35.75;28.00;;;;;19.43;36.43;101192.03;5064706;27;51319;-48
2022/03/03 05:44:29;;;;;;;;;39.00;30.50;;;;;19.43;36.35;101193.94;5061801;28;51880;-47
2022/03/03 05:46:55;;;;;;;;;30.00;28.25;;;;;19.43;36.24;101193.94;5063204;28;51196;-52
2022/03/03 05:49:22;;;;;;;;;32.00;27.50;;;;;19.42;36.38;101197.75;5077238;27;51196;-48
2022/03/03 05:51:48;;;;;;;;;29.50;25.50;;;;;19.41;36.36;101191.41;5058211;27;51214;-52
2022/03/03 05:54:13;;;;;;;;;31.25;27.25;;;;;19.41;36.35;101199.66;5061769;28;51881;-48
2022/03/03 05:56:45;;;;;;;;;31.25;24.75;;;;;19.41;36.48;101215.28;5061551;28;51573;-51
2022/03/03 05:59:14;;;;;;;;;27.75;27.00;;;;;19.42;36.46;101208.75;5057324;28;51249;-51
2022/03/03 06:01:41;;;;;;;;;35.00;32.50;;;;;19.40;36.45;101211.69;5057328;28;50922;-48
2022/03/03 06:04:13;;;;;;;;;48.50;40.00;;;;;19.40;36.75;101211.69;5063493;28;52068;-53
2022/03/03 06:06:44;;;;;;;;;47.00;35.25;;;;;19.40;36.64;101211.69;5065197;27;51158;-52
2022/03/03 06:09:15;;;;;;;;;45.50;36.25;;;;;19.39;36.74;101204.50;5076992;27;51241;-52
2022/03/03 06:11:52;;;;;;;;;44.50;36.75;;;;;19.37;37.01;101200.25;5076251;27;51254;-50
2022/03/03 06:14:28;;;;;;;;;52.00;39.75;;;;;19.34;37.13;101204.25;5064184;28;51151;-52
2022/03/03 06:16:57;;;;;;;;;44.25;37.00;;;;;19.31;37.15;101202.78;5058099;28;51053;-52
2022/03/03 06:19:23;;;;;;;;;41.00;34.75;;;;;19.30;37.14;101200.25;5075031;28;50933;-51
2022/03/03 06:21:49;;;;;;;;;40.25;35.75;;;;;19.28;37.41;101205.09;5063766;27;51123;-50
2022/03/03 06:24:14;;;;;;;;;46.75;35.00;;;;;19.26;37.49;101221.75;5061702;28;51733;-50
2022/03/03 06:26:40;;;;;;;;;39.50;33.25;;;;;19.24;37.50;101212.03;5059945;28;51189;-50
2022/03/03 06:29:05;;;;;;;;;46.25;36.25;;;;;19.22;37.52;101214.16;5058838;28;51064;-49
2022/03/03 06:31:31;;;;;;;;;46.25;36.50;;;;;19.20;37.83;101217.13;5061171;28;51049;-52
2022/03/03 06:33:56;;;;;;;;;42.50;35.25;;;;;19.18;37.77;101218.38;5068161;28;51936;-53
2022/03/03 06:36:21;;;;;;;;;45.50;36.50;;;;;19.15;37.78;101216.88;5068253;27;51273;-49
2022/03/03 06:38:47;;;;;;;;;44.50;37.75;;;;;19.14;38.12;101211.56;5070207;28;51411;-51
2022/03/03 06:41:12;;;;;;;;;38.25;36.00;;;;;19.14;38.07;101214.31;5063991;27;51231;-52
2022/03/03 06:43:38;;;;;;;;;32.25;25.25;;;;;19.19;38.36;101214.56;5064170;27;51188;-48
2022/03/03 06:46:04;;;;;;;;;33.75;32.00;;;;;19.27;38.47;101214.38;5069103;28;51466;-52
2022/03/03 06:48:30;;;;;;;;;32.75;28.00;;;;;19.35;38.58;101216.94;5067375;28;51084;-50
2022/03/03 06:50:56;;;;;;;;;26.75;25.50;;;;;19.44;38.90;101223.94;5063518;28;51319;-51
2022/03/03 06:53:31;;;;;;;;;26.50;24.50;;;;;19.51;38.71;101219.34;5058226;28;51157;-52
2022/03/03 06:56:06;;;;;;;;;26.75;23.75;;;;;19.60;38.95;101220.88;5069253;28;51180;-50
2022/03/03 06:58:32;;;;;;;;;28.75;23.50;;;;;19.69;38.72;101229.75;5066307;28;51142;-45
2022/03/03 07:01:03;;;;;;;;;23.50;19.25;;;;;19.77;39.01;101215.81;5065849;28;51065;-51
2022/03/03 07:03:30;;;;;;;;;20.75;18.50;;;;;19.86;39.10;101220.06;5074152;27;51003;-51
2022/03/03 07:05:56;;;;;;;;;26.25;16.75;;;;;19.94;39.10;101218.19;5069007;27;51179;-51
2022/03/03 07:08:21;;;;;;;;;20.50;20.00;;;;;20.01;39.25;101217.16;5065535;28;51279;-49
2022/03/03 07:10:48;;;;;;;;;20.25;18.75;;;;;20.09;39.15;101224.31;5066770;27;51808;-50
2022/03/03 07:13:17;;;;;;;;;21.75;17.50;;;;;20.17;39.32;101218.63;5058445;28;51578;-49
2022/03/03 07:15:49;;;;;;;;;17.00;14.50;;;;;20.23;39.43;101222.44;5061372;28;52144;-51
2022/03/03 07:18:17;;;;;;;;;18.75;18.75;;;;;20.26;39.68;101231.09;5073016;27;51462;-50
2022/03/03 07:20:52;;;;;;;;;21.75;17.75;;;;;20.25;39.58;101231.31;5061833;28;51292;-47
2022/03/03 07:23:37;;;;;;;;;20.00;19.25;;;;;20.21;39.70;101232.78;5072553;28;51943;-47
2022/03/03 07:26:04;;;;;;;;;22.00;20.50;;;;;20.19;40.28;101228.34;5071199;28;51271;-48
2022/03/03 07:28:31;;;;;;;;;20.00;17.25;;;;;20.19;39.92;101236.59;5065074;27;51312;-49
2022/03/03 07:30:59;;;;;;;;;22.25;18.75;;;;;20.24;40.09;101235.13;5069374;27;51128;-49
2022/03/03 07:33:46;;;;;;;;;24.25;18.00;;;;;20.28;40.45;101234.50;5065248;28;51130;-50
2022/03/03 07:36:18;;;;;;;;;28.25;20.25;;;;;20.30;40.60;101229.63;5060655;28;51440;-50
2022/03/03 07:38:54;;;;;;;;;24.50;22.25;;;;;20.31;40.34;101234.06;5060159;27;52763;-51
2022/03/03 07:41:21;;;;;;;;;27.25;24.00;;;;;20.35;40.63;101223.50;5064210;28;52549;-49
2022/03/03 07:43:49;;;;;;;;;22.75;20.75;;;;;20.36;40.88;101222.44;5054182;28;51887;-52
2022/03/03 07:46:14;;;;;;;;;24.00;20.00;;;;;20.38;40.69;101228.56;5059162;28;51193;-47
2022/03/03 07:48:44;;;;;;;;;26.00;21.25;;;;;20.37;40.62;101237.88;5066819;27;51126;-47
2022/03/03 07:51:10;;;;;;;;;22.75;22.00;;;;;20.35;40.54;101232.59;5067270;27;50998;-51
2022/03/03 07:53:36;;;;;;;;;23.25;22.25;;;;;20.34;40.19;101230.06;5071280;27;52078;-47
2022/03/03 07:56:03;;;;;;;;;29.75;26.00;;;;;20.32;40.24;101226.66;5060920;28;51090;-49
2022/03/03 07:58:32;;;;;;;;;26.00;24.75;;;;;20.29;39.97;101221.56;5064956;27;51200;-45
2022/03/03 08:00:59;;;;;;;;;29.50;21.50;;;;;20.27;39.77;101223.69;5074349;27;51434;-52
2022/03/03 08:03:25;;;;;;;;;31.50;30.25;;;;;20.23;40.15;101216.94;5056734;27;51052;-52
2022/03/03 08:05:55;;;;;;;;;31.25;27.75;;;;;20.21;39.83;101228.13;5066013;27;51071;-46
2022/03/03 08:08:24;;;;;;;;;11.25;7.00;;;;;20.18;40.00;101226.66;5055973;27;51153;-51
2022/03/03 08:10:50;;;;;;;;;29.25;26.25;;;;;20.16;39.81;101227.94;5054320;28;51370;-52
2022/03/03 08:13:17;;;;;;;;;37.25;30.50;;;;;20.13;39.64;101226.47;5055789;28;51016;-47
2022/03/03 08:15:43;;;;;;;;;30.75;29.75;;;;;20.09;40.00;101225.16;5065223;28;51556;-50
2022/03/03 08:18:10;;;;;;;;;29.50;24.00;;;;;20.05;40.12;101228.56;5058013;28;51179;-48
2022/03/03 08:20:36;;;;;;;;;28.00;26.00;;;;;20.03;39.98;101230.69;5058081;28;51499;-50
2022/03/03 08:23:02;;;;;;;;;31.00;30.25;;;;;20.01;40.21;101222.66;5069653;28;53156;-46
2022/03/03 08:25:29;;;;;;;;;29.50;26.50;;;;;19.97;40.35;101221.34;5066591;27;51210;-48
2022/03/03 08:27:54;;;;;;;;;30.75;25.50;;;;;19.95;39.85;101225.38;5061270;28;51461;-48
2022/03/03 08:30:21;;;;;;;;;28.75;24.50;;;;;19.92;40.11;101212.91;5060829;27;51269;-50
2022/03/03 08:33:12;;;;;;;;;30.00;26.50;;;;;19.91;39.72;101224.97;5074334;28;52032;-47
2022/03/03 08:35:41;;;;;;;;;32.50;26.50;;;;;19.90;40.25;101217.75;5078789;27;51151;-49
2022/03/03 08:38:25;;;;;;;;;29.25;28.00;;;;;19.86;40.16;101216.47;5071226;27;51325;-49
2022/03/03 08:40:55;;;;;;;;;35.75;30.75;;;;;19.82;40.25;101220.72;5070533;27;51399;-50
2022/03/03 08:43:22;;;;;;;;;29.75;24.75;;;;;19.80;39.90;101211.81;5076272;28;52059;-49
2022/03/03 08:45:48;;;;;;;;;30.50;29.75;;;;;19.79;40.24;101212.88;5065783;27;51514;-46
2022/03/03 08:48:15;;;;;;;;;34.50;30.00;;;;;19.77;40.19;101215.81;5075907;28;51367;-51
2022/03/03 08:50:42;;;;;;;;;28.50;26.25;;;;;19.78;39.90;101227.66;5070501;27;51282;-49
2022/03/03 08:53:09;;;;;;;;;29.25;24.75;;;;;19.76;40.30;101218.78;5077662;27;51778;-47
2022/03/03 08:55:36;;;;;;;;;29.25;28.25;;;;;19.73;40.23;101222.81;5086076;27;51577;-50
2022/03/03 08:58:03;;;;;;;;;32.00;27.75;;;;;19.73;40.20;101221.97;5072956;27;51336;-48
2022/03/03 09:00:30;;;;;;;;;31.75;27.75;;;;;19.72;40.15;101223.03;5066183;27;51362;-50
2022/03/03 09:02:57;;;;;;;;;37.25;30.75;;;;;19.71;40.09;101224.91;5056751;28;51035;-49
2022/03/03 09:05:22;;;;;;;;;30.50;27.75;;;;;19.70;40.80;101228.72;5068127;28;50995;-51
2022/03/03 09:07:47;;;;;;;;;33.00;29.25;;;;;19.68;40.72;101232.72;5063121;27;51303;-47
2022/03/03 09:10:14;;;;;;;;;24.00;23.00;;;;;19.66;40.42;101232.94;5064390;28;51159;-48
2022/03/03 09:12:40;;;;;;;;;28.25;26.25;;;;;19.66;40.24;101232.94;5058412;28;51800;-49
2022/03/03 09:15:07;;;;;;;;;37.25;32.75;;;;;19.65;40.27;101230.38;5058376;28;51650;-48
2022/03/03 09:17:34;;;;;;;;;32.75;28.50;;;;;19.65;40.29;101227.63;5063936;28;51201;-49
2022/03/03 09:20:01;;;;;;;;;30.00;27.75;;;;;19.64;40.44;101228.69;5075279;28;51080;-48
2022/03/03 09:22:27;;;;;;;;;30.25;25.00;;;;;19.60;40.45;101223.63;5075430;27;51842;-51
2022/03/03 09:24:53;;;;;;;;;32.00;29.00;;;;;19.60;39.98;101223.63;5069685;27;51472;-51
2022/03/03 09:27:19;;;;;;;;;30.00;27.50;;;;;19.62;40.38;101230.81;5056617;28;51211;-47
2022/03/03 09:29:44;;;;;;;;;31.25;25.00;;;;;19.61;39.98;101227.22;5068410;27;51052;-50
2022/03/03 09:32:10;;;;;;;;;22.25;20.25;;;;;19.62;40.20;101225.31;5075972;27;51142;-50
2022/03/03 09:34:35;;;;;;;;;25.25;21.75;;;;;19.62;40.67;101228.91;5075292;27;51285;-50
2022/03/03 09:37:01;;;;;;;;;28.75;24.50;;;;;19.59;40.88;101227.44;5075091;28;51147;-50
2022/03/03 09:39:27;;;;;;;;;31.25;25.75;;;;;19.58;40.09;101228.47;5069859;27;51214;-48
2022/03/03 09:41:53;;;;;;;;;27.00;25.50;;;;;19.59;40.34;101226.56;5074149;28;51144;-51
2022/03/03 09:44:22;;;;;;;;;27.75;25.50;;;;;19.59;40.21;101221.06;5068223;27;51100;-51
2022/03/03 09:46:47;;;;;;;;;24.25;22.50;;;;;19.59;40.22;101221.94;5068394;27;51186;-46
2022/03/03 09:49:13;;;;;;;;;26.50;22.75;;;;;19.57;40.60;101218.53;5073945;27;51315;-48
2022/03/03 09:51:38;;;;;;;;;22.50;21.00;;;;;19.56;40.50;101216.00;5058598;27;51908;-51
2022/03/03 09:54:08;;;;;;;;;29.50;25.50;;;;;19.54;40.46;101224.41;5064261;28;51137;-51
2022/03/03 09:56:33;;;;;;;;;28.50;22.25;;;;;19.55;40.59;101215.13;5055369;28;51180;-46
2022/03/03 09:58:59;;;;;;;;;25.50;22.75;;;;;19.55;40.49;101219.75;5065706;28;50914;-48
2022/03/03 10:01:28;;;;;;;;;20.25;18.00;;;;;19.54;40.14;101224.41;5060038;28;51301;-47
2022/03/03 10:03:57;;;;;;;;;24.75;21.75;;;;;19.53;40.90;101217.22;5062957;28;51218;-50
2022/03/03 10:06:23;;;;;;;;;32.50;26.50;;;;;19.52;40.55;101220.19;5071693;27;52503;-50
2022/03/03 10:08:50;;;;;;;;;24.00;21.50;;;;;19.53;40.37;101219.13;5070229;28;51212;-50
2022/03/03 10:11:16;;;;;;;;;27.50;23.25;;;;;19.55;40.32;101226.13;5069595;28;52438;-47
2022/03/03 10:13:44;;;;;;;;;26.75;20.75;;;;;19.60;40.25;101217.28;5065484;28;51135;-50
2022/03/03 10:16:10;;;;;;;;;29.50;22.50;;;;;19.62;40.47;101220.66;5064531;28;51107;-52
2022/03/03 10:18:36;;;;;;;;;18.75;18.00;;;;;19.66;40.36;101215.59;5066347;27;51330;-48
2022/03/03 10:21:04;;;;;;;;;22.50;19.75;;;;;19.74;40.47;101219.00;5057641;27;51238;-49
2022/03/03 10:23:35;;;;;;;;;19.25;16.25;;;;;19.85;40.16;101214.78;5053307;27;51296;-51
2022/03/03 10:26:04;;;;;;;;;16.00;14.25;;;;;19.97;40.33;101213.09;5055769;28;51258;-46
2022/03/03 10:28:32;;;;;;;;;17.50;15.75;;;;;20.10;40.47;101215.00;5059121;27;52603;-51
2022/03/03 10:31:00;;;;;;;;;18.00;17.75;;;;;20.24;40.18;101213.13;5058331;27;51759;-46
2022/03/03 10:33:37;;;;;;;;;19.50;18.75;;;;;20.34;40.17;101213.56;5058804;28;51258;-50
2022/03/03 10:36:13;;;;;;;;;16.00;15.50;;;;;20.43;40.33;101209.56;5059581;27;52155;-47
2022/03/03 10:38:56;;;;;;;;;16.25;15.75;;;;;20.55;39.83;101210.59;5061479;28;51322;-46
2022/03/03 10:41:53;;;;;;;;;22.25;18.00;;;;;20.63;40.10;101207.59;5060748;27;51932;-51
2022/03/03 10:44:31;;;;;;;;;25.25;19.75;;;;;20.67;40.33;101210.78;5055424;27;51088;-49
2022/03/03 10:47:07;;;;;;;;;14.75;14.75;;;;;20.67;40.18;101208.88;5061403;27;52246;-50
2022/03/03 10:49:34;;;;;;;;;23.75;21.50;;;;;20.66;40.21;101212.69;5061901;27;51117;-46
2022/03/03 10:52:25;;;;;;;;;22.75;16.00;;;;;20.68;40.56;101218.81;5061820;27;51183;-48
2022/03/03 10:55:01;;;;;;;;;18.75;15.25;;;;;20.68;40.36;101213.31;5055569;28;52903;-48
2022/03/03 10:57:46;;;;;;;;;16.75;16.75;;;;;20.69;40.60;101219.66;5052994;28;51119;-49
2022/03/03 11:00:21;;;;;;;;;18.00;17.50;;;;;20.69;40.70;101220.50;5062028;27;52278;-50
2022/03/03 11:02:57;;;;;;;;;18.25;16.25;;;;;20.70;40.16;101211.19;5058960;28;51268;-47
2022/03/03 11:05:25;;;;;;;;;15.75;14.50;;;;;20.73;40.30;101212.66;5061109;28;51513;-46
2022/03/03 11:07:53;;;;;;;;;12.50;12.50;;;;;20.72;40.11;101209.06;5062775;28;51173;-48
2022/03/03 11:10:25;;;;;;;;;18.75;17.75;;;;;20.76;40.44;101204.00;5058826;28;51125;-52
2022/03/03 11:12:51;;;;;;;;;21.00;15.75;;;;;20.82;40.32;101202.25;5060195;28;52777;-51